地図

経路データ

SID SEASON NUMBER BASIN SUBBASIN NAME ISO_TIME NATURE LAT LON WMO_WIND WMO_PRES WMO_AGENCY TRACK_TYPE DIST2LAND LANDFALL IFLAG USA_AGENCY USA_ATCF_ID USA_LAT USA_LON USA_RECORD USA_STATUS USA_WIND USA_PRES USA_SSHS USA_R34_NE USA_R34_SE USA_R34_SW USA_R34_NW USA_R50_NE USA_R50_SE USA_R50_SW USA_R50_NW USA_R64_NE USA_R64_SE USA_R64_SW USA_R64_NW USA_POCI USA_ROCI USA_RMW USA_EYE TOKYO_LAT TOKYO_LON TOKYO_GRADE TOKYO_WIND TOKYO_PRES TOKYO_R50_DIR TOKYO_R50_LONG TOKYO_R50_SHORT TOKYO_R30_DIR TOKYO_R30_LONG TOKYO_R30_SHORT TOKYO_LAND CMA_LAT CMA_LON CMA_CAT CMA_WIND CMA_PRES HKO_LAT HKO_LON HKO_CAT HKO_WIND HKO_PRES NEWDELHI_LAT NEWDELHI_LON NEWDELHI_GRADE NEWDELHI_WIND NEWDELHI_PRES NEWDELHI_CI NEWDELHI_DP NEWDELHI_POCI REUNION_LAT REUNION_LON REUNION_TYPE REUNION_WIND REUNION_PRES REUNION_TNUM REUNION_CI REUNION_RMW REUNION_R34_NE REUNION_R34_SE REUNION_R34_SW REUNION_R34_NW REUNION_R50_NE REUNION_R50_SE REUNION_R50_SW REUNION_R50_NW REUNION_R64_NE REUNION_R64_SE REUNION_R64_SW REUNION_R64_NW BOM_LAT BOM_LON BOM_TYPE BOM_WIND BOM_PRES BOM_TNUM BOM_CI BOM_RMW BOM_R34_NE BOM_R34_SE BOM_R34_SW BOM_R34_NW BOM_R50_NE BOM_R50_SE BOM_R50_SW BOM_R50_NW BOM_R64_NE BOM_R64_SE BOM_R64_SW BOM_R64_NW BOM_ROCI BOM_POCI BOM_EYE BOM_POS_METHOD BOM_PRES_METHOD NADI_LAT NADI_LON NADI_CAT NADI_WIND NADI_PRES WELLINGTON_LAT WELLINGTON_LON WELLINGTON_WIND WELLINGTON_PRES DS824_LAT DS824_LON DS824_STAGE DS824_WIND DS824_PRES TD9636_LAT TD9636_LON TD9636_STAGE TD9636_WIND TD9636_PRES TD9635_LAT TD9635_LON TD9635_WIND TD9635_PRES TD9635_ROCI NEUMANN_LAT NEUMANN_LON NEUMANN_CLASS NEUMANN_WIND NEUMANN_PRES MLC_LAT MLC_LON MLC_CLASS MLC_WIND MLC_PRES USA_GUST BOM_GUST BOM_GUST_PER REUNION_GUST REUNION_GUST_PER USA_SEAHGT USA_SEARAD_NE USA_SEARAD_SE USA_SEARAD_SW USA_SEARAD_NW STORM_SPEED STORM_DIR
1926211N16126 1926 27 WP MM NOT_NAMED 1926-07-29 22:00:00 NR 16.2000 126.000 main 306 306 __________O___ -1 16.2000 126.000 2 7 329
1926211N16126 1926 27 WP MM NOT_NAMED 1926-07-30 00:00:00 NR 16.4024 125.870 main 318 313 __________P___ -1 16.4024 125.870 2 7 329
1926211N16126 1926 27 WP MM NOT_NAMED 1926-07-30 03:00:00 NR 16.7050 125.680 main 337 319 __________P___ -1 16.7050 125.680 2 7 330
1926211N16126 1926 27 WP MM NOT_NAMED 1926-07-30 06:00:00 NR 17.0054 125.502 main 319 299 __________P___ -1 17.0054 125.502 2 7 332
1926211N16126 1926 27 WP MM NOT_NAMED 1926-07-30 09:00:00 NR 17.3021 125.346 main 299 299 __________P___ -1 17.3021 125.346 2 7 334
1926211N16126 1926 27 WP MM NOT_NAMED 1926-07-30 10:00:00 NR 17.4000 125.300 main 300 292 __________O___ -1 17.4000 125.300 2 6 337
1926211N16126 1926 27 WP MM NOT_NAMED 1926-07-30 12:00:00 NR 17.5949 125.217 main 294 290 __________P___ -1 17.5949 125.217 2 6 338
1926211N16126 1926 27 WP MM NOT_NAMED 1926-07-30 15:00:00 NR 17.8932 125.092 main 293 274 __________P___ -1 17.8932 125.092 2 7 337
1926211N16126 1926 27 WP MM NOT_NAMED 1926-07-30 18:00:00 NR 18.2129 124.934 main 274 253 __________P___ -1 18.2129 124.934 2 8 331
1926211N16126 1926 27 WP MM NOT_NAMED 1926-07-30 21:00:00 NR 18.5700 124.701 main 254 244 __________P___ -1 18.5700 124.701 2 9 327
1926211N16126 1926 27 WP MM NOT_NAMED 1926-07-30 22:00:00 NR 18.7000 124.600 main 244 221 __________O___ -1 18.7000 124.600 2 11 319
1926211N16126 1926 27 WP MM NOT_NAMED 1926-07-31 00:00:00 NR 18.9753 124.323 main 221 193 __________P___ -1 18.9753 124.323 2 12 315
1926211N16126 1926 27 WP MM NOT_NAMED 1926-07-31 03:00:00 NR 19.4255 123.825 main 193 191 __________P___ -1 19.4255 123.825 2 14 314
1926211N16126 1926 27 WP MM NOT_NAMED 1926-07-31 06:00:00 NR 19.9117 123.283 main 197 197 __________P___ -1 19.9117 123.283 2 14 315
1926211N16126 1926 27 WP MM NOT_NAMED 1926-07-31 09:00:00 NR 20.4246 122.759 main 229 228 __________P___ -1 20.4246 122.759 2 14 317
1926211N16126 1926 27 WP MM NOT_NAMED 1926-07-31 10:00:00 NR 20.6000 122.600 main 228 183 __________O___ -1 20.6000 122.600 2 13 323
1926211N16126 1926 27 WP MM NOT_NAMED 1926-07-31 12:00:00 NR 20.9464 122.340 main 183 122 __________P___ -1 20.9464 122.340 2 13 327
1926211N16126 1926 27 WP MM NOT_NAMED 1926-07-31 15:00:00 NR 21.4853 121.994 main 122 82 __________P___ -1 21.4853 121.994 2 13 331
1926211N16126 1926 27 WP MM NOT_NAMED 1926-07-31 18:00:00 NR 22.0418 121.686 main 82 38 __________P___ -1 22.0418 121.686 2 13 334
1926211N16126 1926 27 WP MM NOT_NAMED 1926-07-31 21:00:00 NR 22.6094 121.396 main 38 15 __________P___ -1 22.6094 121.396 2 13 335
1926211N16126 1926 27 WP MM NOT_NAMED 1926-07-31 22:00:00 NR 22.8000 121.300 main 15 0 __________O___ -1 22.8000 121.300 2 13 339
1926211N16126 1926 27 WP MM NOT_NAMED 1926-08-01 00:00:00 NR 23.2104 121.148 main 0 0 __________P___ -1 23.2104 121.148 2 13 342
1926211N16126 1926 27 WP MM NOT_NAMED 1926-08-01 03:00:00 NR 23.8333 120.929 main 0 0 __________P___ -1 23.8333 120.929 2 13 340
1926211N16126 1926 27 WP MM NOT_NAMED 1926-08-01 06:00:00 NR 24.4273 120.658 main 0 10 __________P___ -1 24.4273 120.658 2 13 332
1926211N16126 1926 27 WP MM NOT_NAMED 1926-08-01 09:00:00 NR 24.9495 120.269 main 52 52 __________P___ -1 24.9495 120.269 2 13 323
1926211N16126 1926 27 WP MM NOT_NAMED 1926-08-01 10:00:00 NR 25.1000 120.100 main 52 0 __________O___ -1 25.1000 120.100 2 13 308
1926211N16126 1926 27 WP MM NOT_NAMED 1926-08-01 12:00:00 NR 25.3596 119.696 main 0 0 __________P___ -1 25.3596 119.696 2 14 298
1926211N16126 1926 27 WP MM NOT_NAMED 1926-08-01 15:00:00 NR 25.6595 118.945 main 0 0 __________P___ -1 25.6595 118.945 2 16 290
1926211N16126 1926 27 WP MM NOT_NAMED 1926-08-01 18:00:00 NR 25.8789 118.070 main 0 0 __________P___ -1 25.8789 118.070 2 17 283
1926211N16126 1926 27 WP MM NOT_NAMED 1926-08-01 21:00:00 NR 26.0489 117.123 main 0 0 __________P___ -1 26.0489 117.123 2 17 281
1926211N16126 1926 27 WP MM NOT_NAMED 1926-08-01 22:00:00 NR 26.1000 116.800 main 0 __________O___ -1 26.1000 116.800 7 18 280

デジタル台風データ・検索

IBTrACS Databaseについて

本データベースは、米国NOAAが公開する1842年以降の世界の熱帯低気圧のベストトラックデータアーカイブInternational Best Track Archive for Climate Stewardship (IBTrACS)を、ウェブで閲覧しやすい形式に変換したものです。

最終更新日:2021-10-19